createdAt,value
2019-03-16T00:01:56.689Z,0.10
2019-03-16T00:04:53.752Z,0.00
2019-03-16T00:08:01.875Z,0.10
2019-03-16T00:11:09.322Z,0.00
2019-03-16T00:14:16.528Z,0.00
2019-03-16T00:17:24.141Z,0.10
2019-03-16T00:20:31.452Z,0.10
2019-03-16T00:23:38.859Z,0.00
2019-03-16T00:26:46.259Z,0.00
2019-03-16T00:29:53.434Z,0.00
2019-03-16T00:33:00.724Z,0.00
2019-03-16T00:36:07.980Z,0.03
2019-03-16T00:39:15.554Z,0.00
2019-03-16T00:42:23.709Z,0.00
2019-03-16T00:45:31.484Z,0.10
2019-03-16T00:48:39.105Z,0.10
2019-03-16T00:51:46.544Z,0.10
2019-03-16T00:54:54.512Z,0.00
2019-03-16T00:58:01.895Z,0.10
2019-03-16T01:01:09.575Z,0.00
2019-03-16T01:04:17.403Z,0.00
2019-03-16T01:07:24.995Z,0.10
2019-03-16T01:10:32.389Z,0.20
2019-03-16T01:16:49.062Z,0.03
2019-03-16T01:19:56.350Z,0.00
2019-03-16T01:23:04.040Z,0.07
2019-03-16T01:26:12.049Z,0.00
2019-03-16T01:29:19.373Z,0.00
2019-03-16T01:32:39.899Z,0.00
2019-03-16T01:35:37.293Z,0.00
2019-03-16T01:38:44.671Z,0.10
2019-03-16T01:41:51.949Z,0.00
2019-03-16T01:44:59.598Z,0.07
2019-03-16T01:48:07.497Z,0.10
2019-03-16T01:51:15.029Z,0.10
2019-03-16T01:54:22.217Z,0.10
2019-03-16T01:57:29.678Z,0.10
2019-03-16T02:00:37.560Z,0.00
2019-03-16T02:03:45.074Z,0.00
2019-03-16T02:06:52.335Z,0.07
2019-03-16T02:09:59.612Z,0.00
2019-03-16T02:13:07.075Z,0.13
2019-03-16T02:16:14.598Z,0.10
2019-03-16T02:19:21.766Z,0.03
2019-03-16T02:22:29.045Z,0.00
2019-03-16T02:25:36.220Z,0.10
2019-03-16T02:28:43.387Z,0.10
2019-03-16T02:31:50.595Z,0.00
2019-03-16T02:34:57.831Z,0.00
2019-03-16T02:38:05.399Z,0.03
2019-03-16T02:41:12.876Z,0.10
2019-03-16T02:44:20.044Z,0.10
2019-03-16T02:47:27.322Z,0.03
2019-03-16T02:50:34.866Z,0.00
2019-03-16T02:53:42.123Z,0.10
2019-03-16T02:56:49.433Z,0.10
2019-03-16T02:59:57.152Z,0.00
2019-03-16T03:03:04.781Z,0.10
2019-03-16T03:06:12.048Z,0.00
2019-03-16T03:09:19.222Z,0.03
2019-03-16T03:12:26.713Z,0.00
2019-03-16T03:15:34.201Z,0.00
2019-03-16T03:18:41.389Z,0.00
2019-03-16T03:21:48.568Z,0.00
2019-03-16T03:24:55.735Z,0.03
2019-03-16T03:28:03.293Z,0.10
2019-03-16T03:31:10.794Z,0.00
2019-03-16T03:34:18.058Z,0.03
2019-03-16T03:37:25.266Z,0.00
2019-03-16T03:40:32.824Z,0.00
2019-03-16T03:43:40.201Z,0.07
2019-03-16T03:46:53.298Z,0.00
2019-03-16T03:50:00.607Z,0.00
2019-03-16T03:53:07.983Z,0.00
2019-03-16T03:56:15.959Z,0.00
2019-03-16T03:59:23.340Z,0.00
2019-03-16T04:02:30.613Z,0.07
2019-03-16T04:05:38.052Z,0.10
2019-03-16T04:08:45.909Z,0.00
2019-03-16T04:11:53.658Z,0.10
2019-03-16T04:15:01.282Z,0.03
2019-03-16T04:18:08.824Z,0.00
2019-03-16T04:21:16.100Z,0.00
2019-03-16T04:24:23.490Z,0.00
2019-03-16T04:27:31.009Z,0.10
2019-03-16T04:30:38.199Z,0.07
2019-03-16T04:33:45.524Z,0.00
2019-03-16T04:36:53.110Z,0.00
2019-03-16T04:40:00.653Z,0.20
2019-03-16T04:43:08.397Z,0.10
2019-03-16T04:46:15.974Z,0.00
2019-03-16T04:49:23.748Z,0.00
2019-03-16T04:52:31.047Z,0.00
2019-03-16T04:55:38.219Z,0.00
2019-03-16T04:58:45.828Z,0.07
2019-03-16T05:01:53.277Z,0.00
2019-03-16T05:05:00.837Z,0.03
2019-03-16T05:08:08.385Z,0.00
2019-03-16T05:11:15.887Z,0.00
2019-03-16T05:14:23.058Z,0.00
2019-03-16T05:17:30.575Z,0.00
2019-03-16T05:20:38.149Z,0.00
2019-03-16T05:23:45.382Z,0.00
2019-03-16T05:26:53.035Z,0.10
2019-03-16T05:30:00.441Z,0.00
2019-03-16T05:33:08.081Z,0.00
2019-03-16T05:36:15.263Z,0.00
2019-03-16T05:39:22.761Z,0.10
2019-03-16T05:42:30.328Z,0.00
2019-03-16T05:45:38.127Z,0.00
2019-03-16T05:48:45.404Z,0.00
2019-03-16T05:51:53.009Z,0.00
2019-03-16T05:55:00.362Z,0.00
2019-03-16T05:58:07.936Z,0.10
2019-03-16T06:01:15.318Z,0.00
2019-03-16T06:04:22.485Z,0.00
2019-03-16T06:07:30.076Z,0.10
2019-03-16T06:10:37.481Z,0.10
2019-03-16T06:13:45.415Z,0.00
2019-03-16T06:16:52.613Z,0.00
2019-03-16T06:20:00.682Z,0.10
2019-03-16T06:23:08.381Z,0.00
2019-03-16T06:26:15.768Z,0.10
2019-03-16T06:29:22.941Z,0.00
2019-03-16T06:32:30.452Z,0.00
2019-03-16T06:35:37.949Z,0.10
2019-03-16T06:38:45.247Z,0.03
2019-03-16T06:41:52.839Z,0.00
2019-03-16T06:44:59.998Z,0.10
2019-03-16T06:48:07.428Z,0.10
2019-03-16T06:51:14.995Z,0.00
2019-03-16T06:54:22.181Z,0.00
2019-03-16T06:57:29.758Z,0.00
2019-03-16T07:00:36.952Z,0.00
2019-03-16T07:03:44.396Z,0.00
2019-03-16T07:06:51.566Z,0.00
2019-03-16T07:09:59.078Z,0.00
2019-03-16T07:13:06.358Z,0.10
2019-03-16T07:16:13.962Z,0.00
2019-03-16T07:19:21.889Z,0.00
2019-03-16T07:22:29.058Z,0.00
2019-03-16T07:25:36.679Z,0.10
2019-03-16T07:28:44.549Z,0.07
2019-03-16T07:31:52.160Z,0.10
2019-03-16T07:34:59.661Z,0.00
2019-03-16T07:38:07.170Z,0.10
2019-03-16T07:41:14.689Z,0.00
2019-03-16T07:44:22.213Z,0.10
2019-03-16T07:47:29.500Z,0.10
2019-03-16T07:50:37.039Z,0.10
2019-03-16T07:53:44.637Z,0.10
2019-03-16T07:56:52.131Z,0.00
2019-03-16T07:59:59.628Z,0.00
2019-03-16T08:03:07.844Z,0.00
2019-03-16T08:06:15.228Z,0.00
2019-03-16T08:09:22.429Z,0.00
2019-03-16T08:12:32.546Z,0.00
2019-03-16T08:15:40.183Z,0.00
2019-03-16T08:18:47.583Z,0.20
2019-03-16T08:21:56.831Z,0.00
2019-03-16T08:25:04.954Z,0.10
2019-03-16T08:28:13.153Z,0.00
2019-03-16T08:31:20.861Z,0.00
2019-03-16T08:34:29.702Z,0.10
2019-03-16T08:37:37.188Z,0.10
2019-03-16T08:40:45.069Z,0.07
2019-03-16T08:43:52.359Z,0.07
2019-03-16T08:46:59.999Z,0.20
2019-03-16T08:50:07.701Z,0.17
2019-03-16T08:53:15.455Z,0.30
2019-03-16T08:56:22.627Z,0.87
2019-03-16T08:59:29.945Z,0.60
2019-03-16T09:02:37.558Z,0.63
2019-03-16T09:05:44.819Z,2.83
2019-03-16T09:08:53.813Z,0.00
2019-03-16T09:12:01.562Z,0.10
2019-03-16T09:15:09.760Z,0.10
2019-03-16T09:18:17.210Z,0.10
2019-03-16T09:21:24.909Z,0.10
2019-03-16T09:24:33.064Z,0.00
2019-03-16T09:27:40.585Z,0.07
2019-03-16T09:30:47.855Z,0.00
2019-03-16T09:33:57.090Z,0.00
2019-03-16T09:37:04.848Z,0.00
2019-03-16T09:40:12.498Z,0.00
2019-03-16T09:43:20.143Z,0.00
2019-03-16T09:46:28.570Z,0.00
2019-03-16T09:49:36.873Z,0.10
2019-03-16T09:52:45.717Z,0.20
2019-03-16T09:55:54.217Z,0.00
2019-03-16T09:59:02.210Z,0.10
2019-03-16T10:02:10.407Z,0.00
2019-03-16T10:05:18.627Z,0.10
2019-03-16T10:08:26.625Z,0.00
2019-03-16T10:11:34.030Z,0.07
2019-03-16T10:14:42.131Z,0.00
2019-03-16T10:17:49.419Z,0.13
2019-03-16T10:20:56.598Z,0.00
2019-03-16T10:24:04.142Z,0.00
2019-03-16T10:27:11.967Z,0.00
2019-03-16T10:30:19.789Z,0.07
2019-03-16T10:33:27.140Z,0.10
2019-03-16T10:36:34.813Z,0.00
2019-03-16T10:39:42.827Z,0.00
2019-03-16T10:42:50.218Z,0.00
2019-03-16T10:45:57.516Z,0.00
2019-03-16T10:49:05.013Z,0.00
2019-03-16T10:52:12.300Z,0.07
2019-03-16T10:55:20.043Z,0.03
2019-03-16T10:58:27.188Z,0.03
2019-03-16T11:01:34.820Z,0.10
2019-03-16T11:04:42.168Z,0.10
2019-03-16T11:07:50.188Z,0.13
2019-03-16T11:10:57.514Z,0.10
2019-03-16T11:14:05.382Z,0.03
2019-03-16T11:17:13.081Z,0.10
2019-03-16T11:20:20.475Z,0.10
2019-03-16T11:23:28.295Z,0.00
2019-03-16T11:26:35.887Z,0.10
2019-03-16T11:29:43.682Z,0.00
2019-03-16T11:32:51.300Z,0.10
2019-03-16T11:35:58.773Z,0.00
2019-03-16T11:39:07.763Z,0.10
2019-03-16T11:42:15.459Z,0.10
2019-03-16T11:45:23.214Z,0.00
2019-03-16T11:48:31.010Z,0.00
2019-03-16T11:51:38.715Z,0.00
2019-03-16T11:54:46.842Z,0.10
2019-03-16T11:57:55.386Z,0.03
2019-03-16T12:01:02.952Z,0.00
2019-03-16T12:04:10.224Z,0.10
2019-03-16T12:07:17.839Z,0.10
2019-03-16T12:10:25.390Z,0.10
2019-03-16T12:13:32.959Z,0.00
2019-03-16T12:16:40.201Z,0.03
2019-03-16T12:19:47.838Z,0.00
2019-03-16T12:22:55.387Z,0.10
2019-03-16T12:26:02.922Z,0.20
2019-03-16T12:29:10.361Z,0.10
2019-03-16T12:32:17.727Z,0.03
2019-03-16T12:35:25.203Z,0.10
2019-03-16T12:38:33.204Z,0.13
2019-03-16T12:41:40.502Z,0.30
2019-03-16T12:44:47.944Z,0.60
2019-03-16T12:47:55.288Z,0.17
2019-03-16T12:51:03.360Z,0.10
2019-03-16T12:54:11.191Z,0.10
2019-03-16T12:57:18.820Z,0.10
2019-03-16T13:00:26.280Z,0.20
2019-03-16T13:03:34.648Z,0.10
2019-03-16T13:06:42.622Z,0.10
2019-03-16T13:09:50.607Z,0.10
2019-03-16T13:12:58.661Z,0.03
2019-03-16T13:16:06.597Z,0.20
2019-03-16T13:19:13.784Z,0.30
2019-03-16T13:22:20.960Z,0.20
2019-03-16T13:25:29.961Z,0.10
2019-03-16T13:28:37.861Z,0.10
2019-03-16T13:31:45.552Z,0.10
2019-03-16T13:34:53.266Z,0.13
2019-03-16T13:38:00.954Z,0.10
2019-03-16T13:41:08.438Z,0.20
2019-03-16T13:44:16.458Z,0.30
2019-03-16T13:47:24.001Z,0.00
2019-03-16T13:50:31.927Z,0.10
2019-03-16T13:53:39.907Z,0.37
2019-03-16T13:56:47.718Z,0.10
2019-03-16T13:59:55.230Z,0.10
2019-03-16T14:03:02.679Z,0.10
2019-03-16T14:06:10.330Z,0.13
2019-03-16T14:09:18.771Z,0.10
2019-03-16T14:12:26.455Z,0.30
2019-03-16T14:15:34.757Z,0.10
2019-03-16T14:18:42.095Z,0.10
2019-03-16T14:21:50.919Z,0.20
2019-03-16T14:24:59.216Z,0.10
2019-03-16T14:28:07.328Z,0.10
2019-03-16T14:31:15.162Z,0.10
2019-03-16T14:34:22.978Z,0.10
2019-03-16T14:37:30.537Z,0.10
2019-03-16T14:40:38.506Z,0.10
2019-03-16T14:43:46.940Z,0.10
2019-03-16T14:46:54.982Z,0.10
2019-03-16T14:50:05.265Z,0.30
2019-03-16T14:53:13.458Z,0.10
2019-03-16T14:56:21.641Z,0.20
2019-03-16T14:59:29.250Z,0.13
2019-03-16T15:02:36.898Z,0.20
2019-03-16T15:05:46.181Z,0.10
2019-03-16T15:08:54.418Z,0.03
2019-03-16T15:12:02.149Z,0.10
2019-03-16T15:15:11.152Z,0.10
2019-03-16T15:18:21.536Z,0.10
2019-03-16T15:21:32.023Z,0.20
2019-03-16T15:24:39.615Z,0.10
2019-03-16T15:27:48.331Z,0.13
2019-03-16T15:30:55.925Z,0.20
2019-03-16T15:34:03.702Z,0.10
2019-03-16T15:37:10.967Z,0.20
2019-03-16T15:40:18.486Z,0.10
2019-03-16T15:43:25.989Z,0.03
2019-03-16T15:46:33.377Z,0.17
2019-03-16T15:49:40.993Z,0.20
2019-03-16T15:52:48.518Z,0.20
2019-03-16T15:55:55.987Z,0.20
2019-03-16T15:59:03.610Z,0.10
2019-03-16T16:02:11.479Z,0.10
2019-03-16T16:05:20.307Z,0.20
2019-03-16T16:08:27.654Z,0.10
2019-03-16T16:11:35.103Z,0.23
2019-03-16T16:14:42.615Z,0.40
2019-03-16T16:17:50.044Z,0.30
2019-03-16T16:20:57.260Z,7.40
2019-03-16T16:24:04.771Z,3.07
2019-03-16T16:27:11.928Z,0.50
2019-03-16T16:30:19.679Z,0.80
2019-03-16T16:33:27.165Z,0.97
2019-03-16T16:36:35.062Z,0.30
2019-03-16T16:39:42.254Z,0.20
2019-03-16T16:42:49.891Z,0.17
2019-03-16T16:45:57.285Z,0.10
2019-03-16T16:49:04.561Z,0.20
2019-03-16T16:52:12.301Z,0.30
2019-03-16T16:55:20.123Z,0.30
2019-03-16T16:58:27.682Z,0.20
2019-03-16T17:01:34.886Z,0.20
2019-03-16T17:04:42.835Z,0.30
2019-03-16T17:07:50.432Z,0.40
2019-03-16T17:10:57.954Z,0.30
2019-03-16T17:14:05.751Z,0.30
2019-03-16T17:17:13.641Z,0.17
2019-03-16T17:20:21.015Z,0.20
2019-03-16T17:23:28.744Z,0.20
2019-03-16T17:26:36.341Z,0.20
2019-03-16T17:29:43.864Z,0.30
2019-03-16T17:32:51.764Z,0.30
2019-03-16T17:35:59.328Z,0.47
2019-03-16T17:39:06.822Z,0.60
2019-03-16T17:42:14.434Z,0.50
2019-03-16T17:45:22.150Z,1.20
2019-03-16T17:48:29.918Z,1.20
2019-03-16T17:51:37.203Z,0.67
2019-03-16T17:54:44.711Z,0.87
2019-03-16T17:57:52.099Z,1.07
2019-03-16T18:00:59.815Z,0.93
2019-03-16T18:04:07.080Z,1.30
2019-03-16T18:07:14.605Z,1.70
2019-03-16T18:10:21.968Z,2.97
2019-03-16T18:13:29.257Z,3.17
2019-03-16T18:16:36.833Z,2.13
2019-03-16T18:19:44.373Z,2.07
2019-03-16T18:22:52.805Z,1.83
2019-03-16T18:26:00.435Z,2.20
2019-03-16T18:29:08.022Z,1.90
2019-03-16T18:32:15.745Z,1.87
2019-03-16T18:35:23.263Z,2.50
2019-03-16T18:38:30.655Z,2.40
2019-03-16T18:41:37.829Z,2.73
2019-03-16T18:44:46.328Z,3.00
2019-03-16T18:47:54.096Z,2.33
2019-03-16T18:51:01.998Z,1.53
2019-03-16T18:54:09.409Z,1.50
2019-03-16T18:57:17.043Z,1.00
2019-03-16T19:00:24.799Z,1.10
2019-03-16T19:03:32.682Z,1.10
2019-03-16T19:06:40.217Z,0.97
2019-03-16T19:09:47.648Z,0.97
2019-03-16T19:12:55.107Z,1.13
2019-03-16T19:16:02.685Z,1.30
2019-03-16T19:19:09.951Z,1.00
2019-03-16T19:22:17.276Z,0.80
2019-03-16T19:25:24.660Z,0.67
2019-03-16T19:28:32.156Z,0.73
2019-03-16T19:31:39.420Z,0.40
2019-03-16T19:34:47.156Z,1.57
2019-03-16T19:37:54.679Z,0.93
2019-03-16T19:41:02.343Z,1.47
2019-03-16T19:44:09.875Z,0.67
2019-03-16T19:47:17.499Z,0.67
2019-03-16T19:50:26.131Z,1.97
2019-03-16T19:53:34.398Z,1.50
2019-03-16T19:56:42.013Z,1.30
2019-03-16T19:59:49.707Z,1.00
2019-03-16T20:02:57.491Z,0.87
2019-03-16T20:06:05.448Z,0.80
2019-03-16T20:09:13.080Z,1.17
2019-03-16T20:12:20.623Z,0.93
2019-03-16T20:15:28.395Z,1.23
2019-03-16T20:18:36.306Z,1.20
2019-03-16T20:21:43.577Z,0.70
2019-03-16T20:24:50.839Z,0.60
2019-03-16T20:27:58.391Z,0.60
2019-03-16T20:31:06.122Z,0.60
2019-03-16T20:34:13.553Z,0.70
2019-03-16T20:37:21.902Z,0.60
2019-03-16T20:40:30.180Z,0.50
2019-03-16T20:43:37.712Z,0.87
2019-03-16T20:46:45.215Z,0.43
2019-03-16T20:49:53.199Z,0.80
2019-03-16T20:53:00.820Z,0.90
2019-03-16T20:56:08.598Z,1.80
2019-03-16T20:59:16.546Z,1.90
2019-03-16T21:02:24.868Z,1.83
2019-03-16T21:05:32.326Z,1.67
2019-03-16T21:08:39.782Z,0.50
2019-03-16T21:11:49.453Z,1.03
2019-03-16T21:14:56.853Z,0.40
2019-03-16T21:18:04.392Z,0.30
2019-03-16T21:21:12.008Z,0.50
2019-03-16T21:24:19.623Z,0.70
2019-03-16T21:27:27.314Z,0.57
2019-03-16T21:30:34.919Z,0.40
2019-03-16T21:33:42.356Z,0.40
2019-03-16T21:36:49.830Z,0.30
2019-03-16T21:39:58.257Z,2.00
2019-03-16T21:43:06.060Z,1.27
2019-03-16T21:46:13.586Z,1.00
2019-03-16T21:49:21.508Z,1.37
2019-03-16T21:52:29.153Z,0.70
2019-03-16T21:55:36.877Z,1.63
2019-03-16T21:58:44.764Z,1.50
2019-03-16T22:01:52.363Z,1.17
2019-03-16T22:05:00.396Z,1.10
2019-03-16T22:08:08.279Z,0.90
2019-03-16T22:11:15.939Z,0.80
2019-03-16T22:14:23.569Z,0.63
2019-03-16T22:17:31.352Z,0.70
2019-03-16T22:20:38.696Z,0.80
2019-03-16T22:23:46.144Z,0.53
2019-03-16T22:26:54.194Z,1.93
2019-03-16T22:30:01.720Z,0.80
2019-03-16T22:33:09.141Z,0.80
2019-03-16T22:36:17.277Z,0.83
2019-03-16T22:39:25.087Z,0.77
2019-03-16T22:42:32.508Z,0.60
2019-03-16T22:45:39.689Z,0.40
2019-03-16T22:48:47.284Z,0.80
2019-03-16T22:51:54.436Z,0.97
2019-03-16T22:55:01.986Z,1.10
2019-03-16T22:58:09.599Z,0.90
2019-03-16T23:01:17.169Z,0.57
2019-03-16T23:04:25.088Z,0.73
2019-03-16T23:07:32.660Z,1.03
2019-03-16T23:10:40.047Z,0.70
2019-03-16T23:13:47.551Z,0.80
2019-03-16T23:16:55.253Z,0.67
2019-03-16T23:20:03.154Z,0.60
2019-03-16T23:23:10.432Z,0.60
2019-03-16T23:26:18.177Z,0.90
2019-03-16T23:29:25.852Z,0.80
2019-03-16T23:32:33.450Z,0.60
2019-03-16T23:35:40.706Z,0.60
2019-03-16T23:38:47.871Z,0.70
2019-03-16T23:41:55.313Z,0.63
2019-03-16T23:45:03.558Z,0.53
2019-03-16T23:48:11.035Z,0.50
2019-03-16T23:51:18.303Z,0.40
2019-03-16T23:54:25.721Z,0.53
2019-03-16T23:57:34.024Z,0.60
